Ramsey, Minnesota
Current Conditions -  °F | °C
As of 3:34 AM on Thursday 18 Dec 2014 (Local Time) from KANE Reporting Station
Light Snow Light Snow  
Wind Chill: 16°   Ceiling: 2300
Heat Index: 16°   Visibility: 7mi
Dew Point: 14°   Wind: 0mph
Humidity: 93%   Direction: NA
Pressure: 30.32"   Gusts: NA
Location:  45.25°N, 93.41°W
Report Text: KANE 180934Z AUTO 00000KT 7SM -SN OVC023 M09/M10 A3032 RMK AO2
Loading
Personal Weather Stations






























Interactive Weather Map New forecast layout! Learn more

10-Day Weather Forecast

Advertisements
Track Severe Weather on mobile